Vicco, Kentucky
Current Conditions -  °F | °C
As of 7:53 PM on Saturday 22 Nov 2014 (Local Time) from KJKL Reporting Station
Clear Clear  
Wind Chill: 52°   Ceiling: Unl
Heat Index: 52°   Visibility: 10mi
Dew Point: 28°   Wind: 6mph
Humidity: 40%   Direction: NA
Pressure: 30.17"   Gusts: NA
Location:  37.22°N, 83.06°W
Report Text: KJKL 230053Z AUTO VRB05KT 10SM CLR 11/M02 A3017 RMK AO2 SLP220 T01111022
Loading
Personal Weather Stations






























Interactive Weather Map New forecast layout! Learn more

10-Day Weather Forecast

Advertisements
Track Severe Weather on mobile